Depesza METAR lotniska Warszawa-Okęcie

METAR = EPWA 260400Z 14005KT CAVOK M02/M04 Q1028 NOSIG

STACJA......... EPWA - Warszawa-Okęcie (WAW)
POMIAR......... Sun Oct 26, 05:00 CET
TERAZ.......... Sun Oct 26, 05:20 CET
CZAS........... 20 min temu
WIATR.......... południowo wschodni (SE) z prędkością 9 km/h
WIDZIALNOŚĆ.. powyżej 10 kilometrów
CHMURY......... bezchmurne niebo
TEMPERATURA.... -2°C
T.PUNKTU ROSY.. -4°C
WILGOTNOŚĆ... 86%
T.ODCZUWALNA... -6°C
CIŚNIENIE..... 1028 hPa
PROGNOZA....... bez nagłych zmian w ciągu 2h

Depesza METAR lotniska Kraków-Balice

METAR = EPKK 260400Z 05002KT 0150 R25/0250 FZFG VV001 M01/M01 Q1028

STACJA......... EPKK - Kraków-Balice (KRK)
POMIAR......... Sun Oct 26, 05:00 CET
TERAZ.......... Sun Oct 26, 05:20 CET
CZAS........... 20 min temu
WIATR.......... północno-wschodni (NE) z prędkością 4 km/h
WIDZIALNOŚĆ.. 150 metrów
WARUNKI........ opad marznący mgła 
CHMURY......... widzialność pionowa do 30 metrów
TEMPERATURA.... -1°C
T.PUNKTU ROSY.. -1°C
WILGOTNOŚĆ... 100%
CIŚNIENIE..... 1028 hPa

Depesza METAR lotniska Łódź-Lublinek

METAR = EPLL 260400Z 13004KT 9999 BKN023 03/01 Q1027

STACJA......... EPLL - Łódź-Lublinek (LCJ)
POMIAR......... Sun Oct 26, 05:00 CET
TERAZ.......... Sun Oct 26, 05:20 CET
CZAS........... 20 min temu
WIATR.......... południowo wschodni (SE) z prędkością 7 km/h
WIDZIALNOŚĆ.. powyżej 10 kilometrów
CHMURY......... zachmurzenie średnie (5/8-7/8)
TEMPERATURA.... 3°C
T.PUNKTU ROSY.. 1°C
WILGOTNOŚĆ... 87%
T.ODCZUWALNA... 1°C
CIŚNIENIE..... 1027 hPa

Depesza METAR lotniska Wrocław-Strachowice

METAR = EPWR 260400Z 13001KT 9999 MIFG NSC 00/M01 Q1026

STACJA......... EPWR - Wrocław-Strachowice (WRO)
POMIAR......... Sun Oct 26, 05:00 CET
TERAZ.......... Sun Oct 26, 05:20 CET
CZAS........... 20 min temu
WIATR.......... południowo wschodni (SE) z prędkością 2 km/h
WIDZIALNOŚĆ.. powyżej 10 kilometrów
WARUNKI........ niska mgła 
CHMURY......... brak istotnych chmur
TEMPERATURA.... 0°C
T.PUNKTU ROSY.. -1°C
WILGOTNOŚĆ... 93%
CIŚNIENIE..... 1026 hPa

Depesza METAR lotniska Katowice-Pyrzowice

METAR = EPKT 260400Z 14004KT 3000 BR BKN017 03/02 Q1027

STACJA......... EPKT - Katowice-Pyrzowice (KTW)
POMIAR......... Sun Oct 26, 05:00 CET
TERAZ.......... Sun Oct 26, 05:20 CET
CZAS........... 20 min temu
WIATR.......... południowo wschodni (SE) z prędkością 7 km/h
WIDZIALNOŚĆ.. 3000 metrów
WARUNKI........ zamglenie 
CHMURY......... zachmurzenie średnie (5/8-7/8)
TEMPERATURA.... 3°C
T.PUNKTU ROSY.. 2°C
WILGOTNOŚĆ... 93%
T.ODCZUWALNA... 1°C
CIŚNIENIE..... 1027 hPa

Depesza METAR lotniska Gdańsk

METAR = EPGD 260400Z 19004KT 130V260 3000 BR OVC006 05/04 Q1024

STACJA......... EPGD - Gdańsk im. Lecha Wałęsy (GDN)
POMIAR......... Sun Oct 26, 05:00 CET
TERAZ.......... Sun Oct 26, 05:20 CET
CZAS........... 20 min temu
WIATR.......... południowy (S) z prędkością 7 km/h
WIDZIALNOŚĆ.. 3000 metrów
WARUNKI........ zamglenie 
CHMURY......... zachmurzenie całkowite (8/8)
TEMPERATURA.... 5°C
T.PUNKTU ROSY.. 4°C
WILGOTNOŚĆ... 93%
T.ODCZUWALNA... 3°C
CIŚNIENIE..... 1024 hPa

Depesza METAR lotniska Poznań-Ławica

METAR = EPPO 260400Z 16003KT 5000 BR SCT006 BKN011 04/03 Q1026

STACJA......... EPPO - Poznań-Ławica (POZ)
POMIAR......... Sun Oct 26, 05:00 CET
TERAZ.......... Sun Oct 26, 05:20 CET
CZAS........... 20 min temu
WIATR.......... południowo południowo-wschodni (SSE) z prędkością 6 km/h
WIDZIALNOŚĆ.. 5000 metrów
WARUNKI........ zamglenie 
CHMURY......... zachmurzenie średnie (5/8-7/8)
TEMPERATURA.... 4°C
T.PUNKTU ROSY.. 3°C
WILGOTNOŚĆ... 93%
T.ODCZUWALNA... 3°C
CIŚNIENIE..... 1026 hPa

Depesza METAR lotniska Rzeszów-Jasionka

METAR = EPRZ 260400Z 10007KT 0800 R27/1400 FG VV001 00/00 Q1029

STACJA......... EPRZ - Rzeszów-Jasionka (RZE)
POMIAR......... Sun Oct 26, 05:00 CET
TERAZ.......... Sun Oct 26, 05:20 CET
CZAS........... 20 min temu
WIATR.......... wschodni (E) z prędkością 13 km/h
WIDZIALNOŚĆ.. 800 metrów
WARUNKI........ mgła 
CHMURY......... widzialność pionowa do 30 metrów
TEMPERATURA.... 0°C
T.PUNKTU ROSY.. 0°C
WILGOTNOŚĆ... 100%
T.ODCZUWALNA... -4°C
CIŚNIENIE..... 1029 hPa

Depesza METAR lotniska Szczecin-Goleniów

METAR = EPSC 260400Z 14002KT 2000 BR BKN002 06/06 Q1024

STACJA......... EPSC - Szczecin-Goleniów (SZZ)
POMIAR......... Sun Oct 26, 05:00 CET
TERAZ.......... Sun Oct 26, 05:20 CET
CZAS........... 20 min temu
WIATR.......... południowo wschodni (SE) z prędkością 4 km/h
WIDZIALNOŚĆ.. 2000 metrów
WARUNKI........ zamglenie 
CHMURY......... zachmurzenie średnie (5/8-7/8)
TEMPERATURA.... 6°C
T.PUNKTU ROSY.. 6°C
WILGOTNOŚĆ... 100%
CIŚNIENIE..... 1024 hPa

Depesza METAR lotniska Lublin-Świdnik

METAR = EPLB 170930Z 08006KT 2000 -RA BR FEW006 OVC011 12/11 Q1009

STACJA......... EPLB - Lublin-Świdnik (LUZ)
POMIAR......... Fri Oct 17, 10:30 CEST
TERAZ.......... Sun Oct 26, 05:20 CET
CZAS........... 211:50 godz temu
WIATR.......... wschodni (E) z prędkością 11 km/h
WIDZIALNOŚĆ.. 2000 metrów
WARUNKI........ słaby: deszcz  & zamglenie 
CHMURY......... zachmurzenie całkowite (8/8)
TEMPERATURA.... 12°C
T.PUNKTU ROSY.. 11°C
WILGOTNOŚĆ... 94%
CIŚNIENIE..... 1009 hPa

Sprawdź też: prognoza pogody dla miast w Polsce!